Cedar Rapids, Iowa
Current Conditions -  °F | °C
As of 3:52 AM on Sunday 21 Dec 2014 (Local Time) from KCID Reporting Station
Haze Haze  
Wind Chill: 26°   Ceiling: 300
Heat Index: 34°   Visibility: 2.5mi
Dew Point: 34°   Wind: 10mph
Humidity: 100%   Direction: 160°SSE
Pressure: 30.08"   Gusts: NA
Location:  41.98°N, 91.67°W
Report Text: KCID 210952Z AUTO 16009KT 2 1/2SM BR OVC003 01/01 A3008 RMK AO2 SLP196 T00110011 $
Loading
Personal Weather Stations






























Interactive Weather Map New forecast layout! Learn more

10-Day Weather Forecast

Advertisements
Track Severe Weather on mobile